WetterOnline ( https://www.wetteronline.de )

Wetter aktuell Giampilieri

Aktuelles Wetter: Messina (51m)

6-stündlich | Neueste Meldungen
Ortszeit Temperatur Wetter
Do, 29.10. 19:00 19.2° C wolkig
Do, 29.10. 13:00 20.0° C leicht bewölkt
Do, 29.10. 7:00 17.8° C leicht bewölkt
Do, 29.10. 1:00 18.4° C leicht bewölkt
Mi, 28.10. 19:00 18.4° C wolkig
Mi, 28.10. 13:00 18.6° C wolkig
Mi, 28.10. 7:00 14.6° C leichter Regen
Mi, 28.10. 1:00 15.4° C bewölkt
Ortszeit Temperatur Wetter
Do, 29.10. 23:00 18.6° C leicht bewölkt
Do, 29.10. 22:55 19° C leicht bewölkt
Do, 29.10. 22:00 18.8° C leicht bewölkt
Do, 29.10. 21:55 19° C leicht bewölkt
Do, 29.10. 21:00 18.8° C Sprühregen
Do, 29.10. 20:00 19.0° C wolkig
Ortszeit Relative Feuchte Sichtweite
Do, 29.10. 19:00 67% 18 km
Do, 29.10. 13:00 49% 20 km
Do, 29.10. 7:00 58% 20 km
Do, 29.10. 1:00 60% 12 km
Mi, 28.10. 19:00 61% 12 km
Mi, 28.10. 13:00 72% 15 km
Mi, 28.10. 7:00 100% 8 km
Mi, 28.10. 1:00 80% 12 km
Ortszeit Relative Feuchte Sichtweite
Do, 29.10. 23:00 69% 10 km
Do, 29.10. 22:55 68% >10 km
Do, 29.10. 22:00 69% 10 km
Do, 29.10. 21:55 68% >10 km
Do, 29.10. 21:00 70% 10 km
Do, 29.10. 20:00 67% 10 km
Ortszeit Niederschlagsmenge Niederschlagsart
Do, 29.10. 19:00 0.0 l/m2 in 12 Std. -
Do, 29.10. 13:00 0.0 l/m2 in 6 Std. -
Do, 29.10. 7:00 0.0 l/m2 in 12 Std. -
Do, 29.10. 1:00 0.0 l/m2 in 6 Std. -
Mi, 28.10. 19:00 25 l/m2 in 12 Std. Regen
Mi, 28.10. 13:00 22 l/m2 in 6 Std. Regenschauer
Mi, 28.10. 7:00 11 l/m2 in 12 Std. Regen
Mi, 28.10. 1:00 1 l/m2 in 6 Std. Regen
Ortszeit Niederschlagsmenge Niederschlagsart
Do, 29.10. 23:00 keine Meldung -
Do, 29.10. 22:55 keine Meldung -
Do, 29.10. 22:00 keine Meldung -
Do, 29.10. 21:55 keine Meldung -
Do, 29.10. 21:00 keine Meldung -
Do, 29.10. 20:00 keine Meldung -
Ortszeit Stärke Spitze Richtung
km/h Bft. km/h Grad Sektor
Do, 29.10. 19:00 13 3 - 320° NW
Do, 29.10. 13:00 9 2 - 10° N
Do, 29.10. 7:00 11 2 - 350° N
Do, 29.10. 1:00 11 2 - 330° NW
Mi, 28.10. 19:00 13 3 - 320° NW
Mi, 28.10. 13:00 9 2 - 20° N
Mi, 28.10. 7:00 11 2 - 10° N
Mi, 28.10. 1:00 9 2 - 350° N
Ortszeit Stärke Spitze Richtung
km/h Bft. km/h Grad Sektor
Do, 29.10. 23:00 17 3 - 300° NW
Do, 29.10. 22:55 17 3 - 300° NW
Do, 29.10. 22:00 17 3 - 310° NW
Do, 29.10. 21:55 17 3 39 310° NW
Do, 29.10. 21:00 15 3 - 310° NW
Do, 29.10. 20:00 13 3 - 310° NW
Ortszeit Untergrenze Bedeckung Gattung
total tief tief mittel hoch
Do, 29.10. 19:00 600 m 6/8 5/8 Cu - Ci
Do, 29.10. 13:00 750 m 4/8 4/8 Sc - -
Do, 29.10. 7:00 900 m 3/8 3/8 Sc - -
Do, 29.10. 1:00 900 m 3/8 2/8 Sc As -
Mi, 28.10. 19:00 600 m 6/8 6/8 Cu - -
Mi, 28.10. 13:00 600 m 6/8 5/8 Cu As -
Mi, 28.10. 7:00 750 m 7/8 6/8 Cu As -
Mi, 28.10. 1:00 600 m 7/8 5/8 Sc As -
Ortszeit Bedeckungsgrad in Achtel und Wolkenuntergrenze
Do, 29.10. 23:00 3(900m)
Do, 29.10. 22:55 3-4(900m)
Do, 29.10. 22:00 4(900m) 3(2100m)
Do, 29.10. 21:55 3-4(900m)
Do, 29.10. 21:00 4(900m) 3(2100m)
Do, 29.10. 20:00 4(900m)
Ortszeit Luftdruck NN (hPa) Tendenz (hPa in 3 Std.)
Do, 29.10. 19:00 1021 + 0,5
Do, 29.10. 13:00 1020 - 0,2
Do, 29.10. 7:00 1019 + 0,7
Do, 29.10. 1:00 1018 + 0,4
Mi, 28.10. 19:00 1016 + 1,2
Mi, 28.10. 13:00 1014 - 0,5
Mi, 28.10. 7:00 1013 + 0,1
Mi, 28.10. 1:00 1013 - 0,1
Ortszeit Luftdruck NN (hPa) Tendenz (hPa in 3 Std.)
Do, 29.10. 23:00 1021 + 0,5
Do, 29.10. 22:55 1021 keine Meldung
Do, 29.10. 22:00 1021 + 0,4
Do, 29.10. 21:55 1021 keine Meldung
Do, 29.10. 21:00 1021 + 0,6
Do, 29.10. 20:00 1021 + 0,4
Ortszeit Schneehöhe (cm)
Do, 29.10. 19:00 -
Do, 29.10. 13:00 -
Do, 29.10. 7:00 0
Do, 29.10. 1:00 -
Mi, 28.10. 19:00 -
Mi, 28.10. 13:00 -
Mi, 28.10. 7:00 0
Mi, 28.10. 1:00 -
Ortszeit Schneehöhe (cm)
Do, 29.10. 23:00 -
Do, 29.10. 22:55 -
Do, 29.10. 22:00 -
Do, 29.10. 21:55 -
Do, 29.10. 21:00 -
Do, 29.10. 20:00 -
Link zu dieser Seite / Seite empfehlen

Das Wetter in ...